sensor_id;sensor_type;location;lat;lon;timestamp;P1;durP1;ratioP1;P2;durP2;ratioP2
2019;SDS011;1014;51.960;8.542;2024-01-15T00:00:37;94.15;;;87.63;;
2019;SDS011;1014;51.960;8.542;2024-01-15T00:03:04;94.28;;;88.32;;
2019;SDS011;1014;51.960;8.542;2024-01-15T00:05:31;93.53;;;87.70;;
2019;SDS011;1014;51.960;8.542;2024-01-15T00:07:58;88.05;;;82.40;;
2019;SDS011;1014;51.960;8.542;2024-01-15T00:10:26;70.95;;;65.32;;
2019;SDS011;1014;51.960;8.542;2024-01-15T00:12:53;68.88;;;63.88;;
2019;SDS011;1014;51.960;8.542;2024-01-15T00:15:20;65.40;;;60.70;;
2019;SDS011;1014;51.960;8.542;2024-01-15T00:17:48;56.72;;;52.67;;
2019;SDS011;1014;51.960;8.542;2024-01-15T00:20:15;55.20;;;50.70;;
2019;SDS011;1014;51.960;8.542;2024-01-15T00:22:42;58.30;;;53.65;;
2019;SDS011;1014;51.960;8.542;2024-01-15T00:25:09;61.20;;;55.33;;
2019;SDS011;1014;51.960;8.542;2024-01-15T00:27:38;56.58;;;51.97;;
2019;SDS011;1014;51.960;8.542;2024-01-15T00:30:05;64.25;;;58.78;;
2019;SDS011;1014;51.960;8.542;2024-01-15T00:32:32;65.13;;;60.05;;
2019;SDS011;1014;51.960;8.542;2024-01-15T00:35:00;68.00;;;63.30;;
2019;SDS011;1014;51.960;8.542;2024-01-15T00:37:28;69.30;;;64.97;;
2019;SDS011;1014;51.960;8.542;2024-01-15T00:39:55;71.18;;;66.03;;
2019;SDS011;1014;51.960;8.542;2024-01-15T00:42:22;74.03;;;69.25;;
2019;SDS011;1014;51.960;8.542;2024-01-15T00:44:50;72.55;;;67.70;;
2019;SDS011;1014;51.960;8.542;2024-01-15T00:47:19;79.70;;;74.28;;
2019;SDS011;1014;51.960;8.542;2024-01-15T00:49:46;78.20;;;72.70;;
2019;SDS011;1014;51.960;8.542;2024-01-15T00:52:13;70.55;;;66.63;;
2019;SDS011;1014;51.960;8.542;2024-01-15T00:54:40;70.38;;;66.32;;
2019;SDS011;1014;51.960;8.542;2024-01-15T00:57:07;71.57;;;67.57;;
2019;SDS011;1014;51.960;8.542;2024-01-15T00:59:34;68.82;;;64.47;;
2019;SDS011;1014;51.960;8.542;2024-01-15T01:02:02;73.13;;;68.75;;
2019;SDS011;1014;51.960;8.542;2024-01-15T01:04:29;75.05;;;70.50;;
2019;SDS011;1014;51.960;8.542;2024-01-15T01:06:56;75.30;;;69.35;;
2019;SDS011;1014;51.960;8.542;2024-01-15T01:09:23;75.65;;;71.10;;
2019;SDS011;1014;51.960;8.542;2024-01-15T01:11:54;77.00;;;72.03;;
2019;SDS011;1014;51.960;8.542;2024-01-15T01:14:21;71.55;;;67.65;;
2019;SDS011;1014;51.960;8.542;2024-01-15T01:16:48;78.20;;;73.47;;
2019;SDS011;1014;51.960;8.542;2024-01-15T01:19:16;71.82;;;67.38;;
2019;SDS011;1014;51.960;8.542;2024-01-15T01:21:43;68.30;;;64.07;;
2019;SDS011;1014;51.960;8.542;2024-01-15T01:24:10;63.60;;;59.65;;
2019;SDS011;1014;51.960;8.542;2024-01-15T01:26:37;71.03;;;66.63;;
2019;SDS011;1014;51.960;8.542;2024-01-15T01:29:04;75.95;;;71.45;;
2019;SDS011;1014;51.960;8.542;2024-01-15T01:31:32;67.93;;;64.03;;
2019;SDS011;1014;51.960;8.542;2024-01-15T01:33:59;67.25;;;63.22;;
2019;SDS011;1014;51.960;8.542;2024-01-15T01:36:27;69.75;;;65.85;;
2019;SDS011;1014;51.960;8.542;2024-01-15T01:38:54;71.47;;;67.38;;
2019;SDS011;1014;51.960;8.542;2024-01-15T01:41:21;65.53;;;61.65;;
2019;SDS011;1014;51.960;8.542;2024-01-15T01:43:49;71.82;;;67.72;;
2019;SDS011;1014;51.960;8.542;2024-01-15T01:46:16;67.55;;;63.22;;
2019;SDS011;1014;51.960;8.542;2024-01-15T01:48:43;70.97;;;65.63;;
2019;SDS011;1014;51.960;8.542;2024-01-15T01:51:10;70.65;;;66.40;;
2019;SDS011;1014;51.960;8.542;2024-01-15T01:53:39;73.22;;;68.63;;
2019;SDS011;1014;51.960;8.542;2024-01-15T01:56:06;66.57;;;62.90;;
2019;SDS011;1014;51.960;8.542;2024-01-15T01:58:33;73.85;;;69.13;;
2019;SDS011;1014;51.960;8.542;2024-01-15T02:01:00;70.60;;;65.68;;
2019;SDS011;1014;51.960;8.542;2024-01-15T02:03:28;67.07;;;62.97;;
2019;SDS011;1014;51.960;8.542;2024-01-15T02:05:55;62.20;;;59.03;;
2019;SDS011;1014;51.960;8.542;2024-01-15T02:08:22;61.30;;;58.05;;
2019;SDS011;1014;51.960;8.542;2024-01-15T02:10:51;64.88;;;61.28;;
2019;SDS011;1014;51.960;8.542;2024-01-15T02:13:18;64.57;;;60.47;;
2019;SDS011;1014;51.960;8.542;2024-01-15T02:15:45;62.63;;;59.10;;
2019;SDS011;1014;51.960;8.542;2024-01-15T02:18:12;70.53;;;65.63;;
2019;SDS011;1014;51.960;8.542;2024-01-15T02:20:39;63.00;;;59.30;;
2019;SDS011;1014;51.960;8.542;2024-01-15T02:23:11;63.40;;;59.80;;
2019;SDS011;1014;51.960;8.542;2024-01-15T02:25:38;58.60;;;55.35;;
2019;SDS011;1014;51.960;8.542;2024-01-15T02:28:06;64.15;;;59.70;;
2019;SDS011;1014;51.960;8.542;2024-01-15T02:30:34;65.82;;;61.13;;
2019;SDS011;1014;51.960;8.542;2024-01-15T02:33:04;63.60;;;59.25;;
2019;SDS011;1014;51.960;8.542;2024-01-15T02:35:31;66.93;;;62.03;;
2019;SDS011;1014;51.960;8.542;2024-01-15T02:37:58;70.25;;;66.10;;
2019;SDS011;1014;51.960;8.542;2024-01-15T02:40:26;67.13;;;63.10;;
2019;SDS011;1014;51.960;8.542;2024-01-15T02:42:53;65.00;;;60.60;;
2019;SDS011;1014;51.960;8.542;2024-01-15T02:45:20;63.17;;;59.47;;
2019;SDS011;1014;51.960;8.542;2024-01-15T02:47:47;60.70;;;57.33;;
2019;SDS011;1014;51.960;8.542;2024-01-15T02:50:14;65.93;;;62.03;;
2019;SDS011;1014;51.960;8.542;2024-01-15T02:52:42;61.45;;;57.67;;
2019;SDS011;1014;51.960;8.542;2024-01-15T02:55:09;61.15;;;57.55;;
2019;SDS011;1014;51.960;8.542;2024-01-15T02:57:37;55.22;;;52.13;;
2019;SDS011;1014;51.960;8.542;2024-01-15T03:00:04;57.13;;;53.58;;
2019;SDS011;1014;51.960;8.542;2024-01-15T03:02:32;56.38;;;53.03;;
2019;SDS011;1014;51.960;8.542;2024-01-15T03:04:59;56.13;;;52.50;;
2019;SDS011;1014;51.960;8.542;2024-01-15T03:07:27;64.38;;;59.97;;
2019;SDS011;1014;51.960;8.542;2024-01-15T03:09:54;58.13;;;54.58;;
2019;SDS011;1014;51.960;8.542;2024-01-15T03:12:21;58.67;;;55.17;;
2019;SDS011;1014;51.960;8.542;2024-01-15T03:14:49;59.40;;;55.97;;
2019;SDS011;1014;51.960;8.542;2024-01-15T03:17:16;57.80;;;54.53;;
2019;SDS011;1014;51.960;8.542;2024-01-15T03:19:43;58.13;;;54.80;;
2019;SDS011;1014;51.960;8.542;2024-01-15T03:22:10;59.13;;;55.15;;
2019;SDS011;1014;51.960;8.542;2024-01-15T03:24:37;55.65;;;52.55;;
2019;SDS011;1014;51.960;8.542;2024-01-15T03:27:04;59.22;;;55.53;;
2019;SDS011;1014;51.960;8.542;2024-01-15T03:29:31;60.05;;;56.50;;
2019;SDS011;1014;51.960;8.542;2024-01-15T03:32:00;59.05;;;55.17;;
2019;SDS011;1014;51.960;8.542;2024-01-15T03:34:27;61.28;;;56.97;;
2019;SDS011;1014;51.960;8.542;2024-01-15T03:36:54;63.13;;;59.15;;
2019;SDS011;1014;51.960;8.542;2024-01-15T03:39:21;58.75;;;54.65;;
2019;SDS011;1014;51.960;8.542;2024-01-15T03:41:48;53.60;;;50.90;;
2019;SDS011;1014;51.960;8.542;2024-01-15T03:44:15;53.53;;;50.35;;
2019;SDS011;1014;51.960;8.542;2024-01-15T03:46:42;53.25;;;49.53;;
2019;SDS011;1014;51.960;8.542;2024-01-15T03:49:10;53.97;;;50.38;;
2019;SDS011;1014;51.960;8.542;2024-01-15T03:51:37;52.40;;;49.50;;
2019;SDS011;1014;51.960;8.542;2024-01-15T03:54:04;49.15;;;46.38;;
2019;SDS011;1014;51.960;8.542;2024-01-15T03:56:31;47.75;;;45.40;;
2019;SDS011;1014;51.960;8.542;2024-01-15T03:58:58;55.80;;;51.90;;
2019;SDS011;1014;51.960;8.542;2024-01-15T04:01:25;52.92;;;49.45;;
2019;SDS011;1014;51.960;8.542;2024-01-15T04:03:52;58.90;;;54.85;;
2019;SDS011;1014;51.960;8.542;2024-01-15T04:06:21;54.92;;;51.83;;
2019;SDS011;1014;51.960;8.542;2024-01-15T04:08:48;51.58;;;48.20;;
2019;SDS011;1014;51.960;8.542;2024-01-15T04:11:15;50.22;;;46.97;;
2019;SDS011;1014;51.960;8.542;2024-01-15T04:13:42;48.15;;;45.25;;
2019;SDS011;1014;51.960;8.542;2024-01-15T04:16:09;47.05;;;44.58;;
2019;SDS011;1014;51.960;8.542;2024-01-15T04:18:36;48.35;;;45.35;;
2019;SDS011;1014;51.960;8.542;2024-01-15T04:21:03;45.75;;;42.85;;
2019;SDS011;1014;51.960;8.542;2024-01-15T04:23:32;44.10;;;41.67;;
2019;SDS011;1014;51.960;8.542;2024-01-15T04:25:59;41.55;;;38.75;;
2019;SDS011;1014;51.960;8.542;2024-01-15T04:28:26;41.65;;;38.65;;
2019;SDS011;1014;51.960;8.542;2024-01-15T04:30:53;38.85;;;36.42;;
2019;SDS011;1014;51.960;8.542;2024-01-15T04:33:20;38.97;;;36.58;;
2019;SDS011;1014;51.960;8.542;2024-01-15T04:35:47;39.60;;;36.65;;
2019;SDS011;1014;51.960;8.542;2024-01-15T04:38:14;43.30;;;40.58;;
2019;SDS011;1014;51.960;8.542;2024-01-15T04:40:42;36.15;;;33.97;;
2019;SDS011;1014;51.960;8.542;2024-01-15T04:43:09;35.25;;;33.35;;
2019;SDS011;1014;51.960;8.542;2024-01-15T04:45:36;39.20;;;36.53;;
2019;SDS011;1014;51.960;8.542;2024-01-15T04:48:03;37.22;;;35.05;;
2019;SDS011;1014;51.960;8.542;2024-01-15T04:50:30;38.20;;;36.08;;
2019;SDS011;1014;51.960;8.542;2024-01-15T04:52:57;34.72;;;32.75;;
2019;SDS011;1014;51.960;8.542;2024-01-15T04:55:24;48.40;;;44.08;;
2019;SDS011;1014;51.960;8.542;2024-01-15T04:57:53;38.60;;;35.85;;
2019;SDS011;1014;51.960;8.542;2024-01-15T05:00:20;37.85;;;34.80;;
2019;SDS011;1014;51.960;8.542;2024-01-15T05:02:47;53.05;;;48.10;;
2019;SDS011;1014;51.960;8.542;2024-01-15T05:05:14;44.35;;;41.13;;
2019;SDS011;1014;51.960;8.542;2024-01-15T05:07:41;35.63;;;33.80;;
2019;SDS011;1014;51.960;8.542;2024-01-15T05:10:08;36.97;;;34.92;;
2019;SDS011;1014;51.960;8.542;2024-01-15T05:12:35;40.67;;;38.00;;
2019;SDS011;1014;51.960;8.542;2024-01-15T05:15:03;39.70;;;37.40;;
2019;SDS011;1014;51.960;8.542;2024-01-15T05:17:31;37.38;;;35.35;;
2019;SDS011;1014;51.960;8.542;2024-01-15T05:19:58;42.05;;;39.63;;
2019;SDS011;1014;51.960;8.542;2024-01-15T05:22:25;40.22;;;37.97;;
2019;SDS011;1014;51.960;8.542;2024-01-15T05:24:52;37.78;;;35.33;;
2019;SDS011;1014;51.960;8.542;2024-01-15T05:27:19;39.22;;;36.92;;
2019;SDS011;1014;51.960;8.542;2024-01-15T05:29:45;43.40;;;40.05;;
2019;SDS011;1014;51.960;8.542;2024-01-15T05:32:14;42.58;;;39.22;;
2019;SDS011;1014;51.960;8.542;2024-01-15T05:34:41;39.20;;;36.78;;
2019;SDS011;1014;51.960;8.542;2024-01-15T05:37:08;36.20;;;34.15;;
2019;SDS011;1014;51.960;8.542;2024-01-15T05:39:35;35.47;;;33.28;;
2019;SDS011;1014;51.960;8.542;2024-01-15T05:42:02;40.70;;;38.38;;
2019;SDS011;1014;51.960;8.542;2024-01-15T05:44:29;37.17;;;35.08;;
2019;SDS011;1014;51.960;8.542;2024-01-15T05:46:56;38.65;;;36.15;;
2019;SDS011;1014;51.960;8.542;2024-01-15T05:49:24;39.42;;;37.05;;
2019;SDS011;1014;51.960;8.542;2024-01-15T05:51:51;35.30;;;33.42;;
2019;SDS011;1014;51.960;8.542;2024-01-15T05:54:18;38.45;;;36.28;;
2019;SDS011;1014;51.960;8.542;2024-01-15T05:56:45;41.97;;;39.30;;
2019;SDS011;1014;51.960;8.542;2024-01-15T05:59:12;41.15;;;38.08;;
2019;SDS011;1014;51.960;8.542;2024-01-15T06:01:40;41.20;;;38.75;;
2019;SDS011;1014;51.960;8.542;2024-01-15T06:04:07;32.75;;;30.65;;
2019;SDS011;1014;51.960;8.542;2024-01-15T06:06:35;38.95;;;35.17;;
2019;SDS011;1014;51.960;8.542;2024-01-15T06:09:02;33.20;;;30.90;;
2019;SDS011;1014;51.960;8.542;2024-01-15T06:11:31;36.47;;;33.53;;
2019;SDS011;1014;51.960;8.542;2024-01-15T06:13:58;37.13;;;34.28;;
2019;SDS011;1014;51.960;8.542;2024-01-15T06:16:26;36.38;;;33.38;;
2019;SDS011;1014;51.960;8.542;2024-01-15T06:18:53;33.42;;;31.33;;
2019;SDS011;1014;51.960;8.542;2024-01-15T06:21:20;31.05;;;29.10;;
2019;SDS011;1014;51.960;8.542;2024-01-15T06:23:48;35.00;;;32.65;;
2019;SDS011;1014;51.960;8.542;2024-01-15T06:26:15;32.88;;;31.08;;
2019;SDS011;1014;51.960;8.542;2024-01-15T06:28:42;34.00;;;31.55;;
2019;SDS011;1014;51.960;8.542;2024-01-15T06:31:09;31.92;;;29.75;;
2019;SDS011;1014;51.960;8.542;2024-01-15T06:33:36;32.80;;;30.55;;
2019;SDS011;1014;51.960;8.542;2024-01-15T06:36:03;30.30;;;28.40;;
2019;SDS011;1014;51.960;8.542;2024-01-15T06:38:31;32.40;;;30.10;;
2019;SDS011;1014;51.960;8.542;2024-01-15T06:40:59;31.52;;;29.58;;
2019;SDS011;1014;51.960;8.542;2024-01-15T06:43:26;33.10;;;31.10;;
2019;SDS011;1014;51.960;8.542;2024-01-15T06:45:53;36.47;;;33.97;;
2019;SDS011;1014;51.960;8.542;2024-01-15T06:48:20;35.47;;;33.50;;
2019;SDS011;1014;51.960;8.542;2024-01-15T06:50:48;32.33;;;30.17;;
2019;SDS011;1014;51.960;8.542;2024-01-15T06:53:15;33.13;;;31.13;;
2019;SDS011;1014;51.960;8.542;2024-01-15T06:55:42;46.13;;;35.10;;
2019;SDS011;1014;51.960;8.542;2024-01-15T06:58:10;36.58;;;33.83;;
2019;SDS011;1014;51.960;8.542;2024-01-15T07:00:38;34.83;;;32.75;;
2019;SDS011;1014;51.960;8.542;2024-01-15T07:03:06;35.80;;;33.28;;
2019;SDS011;1014;51.960;8.542;2024-01-15T07:05:33;35.95;;;33.53;;
2019;SDS011;1014;51.960;8.542;2024-01-15T07:08:02;35.58;;;33.28;;
2019;SDS011;1014;51.960;8.542;2024-01-15T07:10:29;35.42;;;32.97;;
2019;SDS011;1014;51.960;8.542;2024-01-15T07:12:56;39.60;;;37.03;;
2019;SDS011;1014;51.960;8.542;2024-01-15T07:15:25;39.75;;;37.53;;
2019;SDS011;1014;51.960;8.542;2024-01-15T07:17:52;39.35;;;36.92;;
2019;SDS011;1014;51.960;8.542;2024-01-15T07:20:19;39.15;;;35.70;;
2019;SDS011;1014;51.960;8.542;2024-01-15T07:22:46;37.85;;;35.72;;
2019;SDS011;1014;51.960;8.542;2024-01-15T07:25:13;39.85;;;37.58;;
2019;SDS011;1014;51.960;8.542;2024-01-15T07:27:40;39.03;;;36.90;;
2019;SDS011;1014;51.960;8.542;2024-01-15T07:30:10;40.90;;;38.40;;
2019;SDS011;1014;51.960;8.542;2024-01-15T07:32:38;41.13;;;38.53;;
2019;SDS011;1014;51.960;8.542;2024-01-15T07:35:05;40.10;;;37.97;;
2019;SDS011;1014;51.960;8.542;2024-01-15T07:37:32;37.45;;;35.60;;
2019;SDS011;1014;51.960;8.542;2024-01-15T07:39:59;38.05;;;35.85;;
2019;SDS011;1014;51.960;8.542;2024-01-15T07:42:27;39.60;;;37.35;;
2019;SDS011;1014;51.960;8.542;2024-01-15T07:44:54;37.20;;;35.15;;
2019;SDS011;1014;51.960;8.542;2024-01-15T07:47:21;41.10;;;37.92;;
2019;SDS011;1014;51.960;8.542;2024-01-15T07:49:50;39.47;;;37.55;;
2019;SDS011;1014;51.960;8.542;2024-01-15T07:52:17;37.10;;;34.97;;
2019;SDS011;1014;51.960;8.542;2024-01-15T07:54:44;38.08;;;36.08;;
2019;SDS011;1014;51.960;8.542;2024-01-15T07:57:11;40.60;;;38.53;;
2019;SDS011;1014;51.960;8.542;2024-01-15T07:59:38;38.80;;;36.25;;
2019;SDS011;1014;51.960;8.542;2024-01-15T08:02:05;40.67;;;38.22;;
2019;SDS011;1014;51.960;8.542;2024-01-15T08:04:32;41.10;;;39.00;;
2019;SDS011;1014;51.960;8.542;2024-01-15T08:07:00;39.88;;;37.58;;
2019;SDS011;1014;51.960;8.542;2024-01-15T08:09:28;41.65;;;39.47;;
2019;SDS011;1014;51.960;8.542;2024-01-15T08:11:55;40.13;;;38.13;;
2019;SDS011;1014;51.960;8.542;2024-01-15T08:14:22;40.63;;;38.50;;
2019;SDS011;1014;51.960;8.542;2024-01-15T08:16:49;37.58;;;35.35;;
2019;SDS011;1014;51.960;8.542;2024-01-15T08:19:16;38.70;;;36.67;;
2019;SDS011;1014;51.960;8.542;2024-01-15T08:21:44;37.72;;;35.92;;
2019;SDS011;1014;51.960;8.542;2024-01-15T08:24:14;39.25;;;37.10;;
2019;SDS011;1014;51.960;8.542;2024-01-15T08:26:41;38.70;;;36.47;;
2019;SDS011;1014;51.960;8.542;2024-01-15T08:29:08;40.10;;;37.83;;
2019;SDS011;1014;51.960;8.542;2024-01-15T08:31:35;36.28;;;34.55;;
2019;SDS011;1014;51.960;8.542;2024-01-15T08:34:02;35.75;;;33.95;;
2019;SDS011;1014;51.960;8.542;2024-01-15T08:36:30;40.78;;;38.47;;
2019;SDS011;1014;51.960;8.542;2024-01-15T08:38:57;40.55;;;38.35;;
2019;SDS011;1014;51.960;8.542;2024-01-15T08:41:25;40.85;;;38.60;;
2019;SDS011;1014;51.960;8.542;2024-01-15T08:43:52;36.05;;;34.08;;
2019;SDS011;1014;51.960;8.542;2024-01-15T08:46:19;36.30;;;33.80;;
2019;SDS011;1014;51.960;8.542;2024-01-15T08:48:46;35.78;;;33.63;;
2019;SDS011;1014;51.960;8.542;2024-01-15T08:51:13;34.55;;;32.75;;
2019;SDS011;1014;51.960;8.542;2024-01-15T08:53:40;36.00;;;34.13;;
2019;SDS011;1014;51.960;8.542;2024-01-15T08:56:07;31.02;;;29.15;;
2019;SDS011;1014;51.960;8.542;2024-01-15T08:58:35;29.40;;;27.80;;
2019;SDS011;1014;51.960;8.542;2024-01-15T09:01:02;32.05;;;29.35;;
2019;SDS011;1014;51.960;8.542;2024-01-15T09:03:30;32.00;;;29.65;;
2019;SDS011;1014;51.960;8.542;2024-01-15T09:05:58;34.63;;;32.53;;
2019;SDS011;1014;51.960;8.542;2024-01-15T09:08:25;33.15;;;31.30;;
2019;SDS011;1014;51.960;8.542;2024-01-15T09:10:53;34.67;;;32.78;;
2019;SDS011;1014;51.960;8.542;2024-01-15T09:13:20;37.78;;;35.28;;
2019;SDS011;1014;51.960;8.542;2024-01-15T09:15:48;37.10;;;35.13;;
2019;SDS011;1014;51.960;8.542;2024-01-15T09:18:15;37.10;;;35.10;;
2019;SDS011;1014;51.960;8.542;2024-01-15T09:20:42;41.47;;;39.28;;
2019;SDS011;1014;51.960;8.542;2024-01-15T09:23:09;43.13;;;40.75;;
2019;SDS011;1014;51.960;8.542;2024-01-15T09:25:36;39.33;;;36.83;;
2019;SDS011;1014;51.960;8.542;2024-01-15T09:28:03;43.85;;;41.30;;
2019;SDS011;1014;51.960;8.542;2024-01-15T09:30:30;41.42;;;39.13;;
2019;SDS011;1014;51.960;8.542;2024-01-15T09:32:59;38.58;;;36.45;;
2019;SDS011;1014;51.960;8.542;2024-01-15T09:35:26;40.97;;;38.00;;
2019;SDS011;1014;51.960;8.542;2024-01-15T09:37:53;47.65;;;44.10;;
2019;SDS011;1014;51.960;8.542;2024-01-15T09:40:20;40.15;;;37.95;;
2019;SDS011;1014;51.960;8.542;2024-01-15T09:42:47;41.28;;;39.25;;
2019;SDS011;1014;51.960;8.542;2024-01-15T09:45:14;41.70;;;38.90;;
2019;SDS011;1014;51.960;8.542;2024-01-15T09:47:41;42.17;;;39.75;;
2019;SDS011;1014;51.960;8.542;2024-01-15T09:50:10;39.47;;;37.38;;
2019;SDS011;1014;51.960;8.542;2024-01-15T09:52:37;37.65;;;35.45;;
2019;SDS011;1014;51.960;8.542;2024-01-15T09:55:05;38.08;;;35.85;;
2019;SDS011;1014;51.960;8.542;2024-01-15T09:57:32;36.28;;;34.40;;
2019;SDS011;1014;51.960;8.542;2024-01-15T09:59:59;36.15;;;34.35;;
2019;SDS011;1014;51.960;8.542;2024-01-15T10:02:29;35.83;;;33.92;;
2019;SDS011;1014;51.960;8.542;2024-01-15T10:04:57;35.13;;;33.33;;
2019;SDS011;1014;51.960;8.542;2024-01-15T10:07:25;39.35;;;37.15;;
2019;SDS011;1014;51.960;8.542;2024-01-15T10:09:53;35.30;;;33.40;;
2019;SDS011;1014;51.960;8.542;2024-01-15T10:12:20;32.55;;;30.77;;
2019;SDS011;1014;51.960;8.542;2024-01-15T10:14:48;33.45;;;31.70;;
2019;SDS011;1014;51.960;8.542;2024-01-15T10:17:15;34.95;;;33.00;;
2019;SDS011;1014;51.960;8.542;2024-01-15T10:19:42;31.60;;;30.00;;
2019;SDS011;1014;51.960;8.542;2024-01-15T10:22:09;32.95;;;31.27;;
2019;SDS011;1014;51.960;8.542;2024-01-15T10:24:37;31.05;;;29.42;;
2019;SDS011;1014;51.960;8.542;2024-01-15T10:27:05;30.80;;;28.90;;
2019;SDS011;1014;51.960;8.542;2024-01-15T10:29:32;34.75;;;32.65;;
2019;SDS011;1014;51.960;8.542;2024-01-15T10:31:59;32.85;;;31.05;;
2019;SDS011;1014;51.960;8.542;2024-01-15T10:34:27;32.58;;;30.65;;
2019;SDS011;1014;51.960;8.542;2024-01-15T10:36:54;29.55;;;28.10;;
2019;SDS011;1014;51.960;8.542;2024-01-15T10:39:21;29.95;;;28.45;;
2019;SDS011;1014;51.960;8.542;2024-01-15T10:41:50;30.30;;;28.80;;
2019;SDS011;1014;51.960;8.542;2024-01-15T10:44:17;29.55;;;27.63;;
2019;SDS011;1014;51.960;8.542;2024-01-15T10:46:44;27.52;;;26.23;;
2019;SDS011;1014;51.960;8.542;2024-01-15T10:49:12;29.63;;;27.67;;
2019;SDS011;1014;51.960;8.542;2024-01-15T10:51:39;28.55;;;27.13;;
2019;SDS011;1014;51.960;8.542;2024-01-15T10:54:06;27.73;;;26.33;;
2019;SDS011;1014;51.960;8.542;2024-01-15T10:56:36;28.02;;;26.33;;
2019;SDS011;1014;51.960;8.542;2024-01-15T10:59:05;27.55;;;26.13;;
2019;SDS011;1014;51.960;8.542;2024-01-15T11:01:34;28.40;;;26.80;;
2019;SDS011;1014;51.960;8.542;2024-01-15T11:04:01;26.55;;;24.88;;
2019;SDS011;1014;51.960;8.542;2024-01-15T11:06:28;27.05;;;25.65;;
2019;SDS011;1014;51.960;8.542;2024-01-15T11:09:07;27.60;;;26.10;;
2019;SDS011;1014;51.960;8.542;2024-01-15T11:11:34;25.95;;;24.65;;
2019;SDS011;1014;51.960;8.542;2024-01-15T11:14:02;26.38;;;24.92;;
2019;SDS011;1014;51.960;8.542;2024-01-15T11:16:53;25.88;;;24.70;;
2019;SDS011;1014;51.960;8.542;2024-01-15T11:19:21;27.40;;;26.00;;
2019;SDS011;1014;51.960;8.542;2024-01-15T11:21:48;25.73;;;24.45;;
2019;SDS011;1014;51.960;8.542;2024-01-15T11:26:57;26.80;;;25.40;;
2019;SDS011;1014;51.960;8.542;2024-01-15T11:29:31;26.55;;;24.95;;
2019;SDS011;1014;51.960;8.542;2024-01-15T11:32:01;25.98;;;24.75;;
2019;SDS011;1014;51.960;8.542;2024-01-15T11:37:15;29.25;;;27.63;;
2019;SDS011;1014;51.960;8.542;2024-01-15T11:39:42;26.23;;;24.92;;
2019;SDS011;1014;51.960;8.542;2024-01-15T11:42:09;26.98;;;25.58;;
2019;SDS011;1014;51.960;8.542;2024-01-15T11:44:37;28.70;;;26.90;;
2019;SDS011;1014;51.960;8.542;2024-01-15T11:47:06;26.77;;;25.58;;
2019;SDS011;1014;51.960;8.542;2024-01-15T11:49:42;27.55;;;26.05;;
2019;SDS011;1014;51.960;8.542;2024-01-15T11:52:16;25.65;;;24.33;;
2019;SDS011;1014;51.960;8.542;2024-01-15T11:54:44;26.77;;;25.48;;
2019;SDS011;1014;51.960;8.542;2024-01-15T11:57:16;25.88;;;24.58;;
2019;SDS011;1014;51.960;8.542;2024-01-15T11:59:45;24.77;;;23.33;;
2019;SDS011;1014;51.960;8.542;2024-01-15T12:02:13;23.20;;;21.90;;
2019;SDS011;1014;51.960;8.542;2024-01-15T12:04:40;24.13;;;22.83;;
2019;SDS011;1014;51.960;8.542;2024-01-15T12:07:07;25.60;;;24.23;;
2019;SDS011;1014;51.960;8.542;2024-01-15T12:09:34;24.95;;;23.55;;
2019;SDS011;1014;51.960;8.542;2024-01-15T12:12:02;25.40;;;24.20;;
2019;SDS011;1014;51.960;8.542;2024-01-15T12:14:31;25.83;;;24.42;;
2019;SDS011;1014;51.960;8.542;2024-01-15T12:16:59;24.73;;;23.48;;
2019;SDS011;1014;51.960;8.542;2024-01-15T12:19:27;25.50;;;24.20;;
2019;SDS011;1014;51.960;8.542;2024-01-15T12:21:54;25.35;;;23.63;;
2019;SDS011;1014;51.960;8.542;2024-01-15T12:24:21;21.90;;;20.90;;
2019;SDS011;1014;51.960;8.542;2024-01-15T12:26:48;22.27;;;21.10;;
2019;SDS011;1014;51.960;8.542;2024-01-15T12:29:17;22.80;;;21.38;;
2019;SDS011;1014;51.960;8.542;2024-01-15T12:31:46;22.92;;;21.70;;
2019;SDS011;1014;51.960;8.542;2024-01-15T12:34:13;22.90;;;21.90;;
2019;SDS011;1014;51.960;8.542;2024-01-15T12:36:41;23.15;;;21.77;;
2019;SDS011;1014;51.960;8.542;2024-01-15T12:39:11;22.23;;;21.08;;
2019;SDS011;1014;51.960;8.542;2024-01-15T12:41:38;23.58;;;22.38;;
2019;SDS011;1014;51.960;8.542;2024-01-15T12:44:05;22.70;;;21.50;;
2019;SDS011;1014;51.960;8.542;2024-01-15T12:46:32;23.58;;;22.27;;
2019;SDS011;1014;51.960;8.542;2024-01-15T12:48:59;22.77;;;21.63;;
2019;SDS011;1014;51.960;8.542;2024-01-15T12:51:26;22.00;;;20.95;;
2019;SDS011;1014;51.960;8.542;2024-01-15T12:53:55;21.30;;;20.20;;
2019;SDS011;1014;51.960;8.542;2024-01-15T12:56:22;21.50;;;20.55;;
2019;SDS011;1014;51.960;8.542;2024-01-15T12:58:49;20.90;;;19.90;;
2019;SDS011;1014;51.960;8.542;2024-01-15T13:01:15;20.05;;;19.15;;
2019;SDS011;1014;51.960;8.542;2024-01-15T13:03:43;21.38;;;19.63;;
2019;SDS011;1014;51.960;8.542;2024-01-15T13:06:10;21.02;;;19.85;;
2019;SDS011;1014;51.960;8.542;2024-01-15T13:08:37;19.58;;;18.67;;
2019;SDS011;1014;51.960;8.542;2024-01-15T13:11:05;20.90;;;19.75;;
2019;SDS011;1014;51.960;8.542;2024-01-15T13:13:32;19.88;;;18.92;;
2019;SDS011;1014;51.960;8.542;2024-01-15T13:15:59;20.42;;;19.30;;
2019;SDS011;1014;51.960;8.542;2024-01-15T13:18:26;21.67;;;20.48;;
2019;SDS011;1014;51.960;8.542;2024-01-15T13:20:54;20.42;;;19.35;;
2019;SDS011;1014;51.960;8.542;2024-01-15T13:23:20;21.90;;;20.83;;
2019;SDS011;1014;51.960;8.542;2024-01-15T13:25:47;24.30;;;22.67;;
2019;SDS011;1014;51.960;8.542;2024-01-15T13:28:16;23.45;;;21.85;;
2019;SDS011;1014;51.960;8.542;2024-01-15T13:30:43;26.73;;;24.92;;
2019;SDS011;1014;51.960;8.542;2024-01-15T13:33:10;32.97;;;28.92;;
2019;SDS011;1014;51.960;8.542;2024-01-15T13:35:38;34.47;;;31.23;;
2019;SDS011;1014;51.960;8.542;2024-01-15T13:38:05;29.50;;;26.52;;
2019;SDS011;1014;51.960;8.542;2024-01-15T13:40:33;24.00;;;22.40;;
2019;SDS011;1014;51.960;8.542;2024-01-15T13:43:00;46.35;;;39.35;;
2019;SDS011;1014;51.960;8.542;2024-01-15T13:45:33;23.02;;;21.73;;
2019;SDS011;1014;51.960;8.542;2024-01-15T13:48:02;21.08;;;20.08;;
2019;SDS011;1014;51.960;8.542;2024-01-15T13:50:30;20.67;;;19.48;;
2019;SDS011;1014;51.960;8.542;2024-01-15T13:52:57;20.65;;;19.75;;
2019;SDS011;1014;51.960;8.542;2024-01-15T13:55:24;20.83;;;19.92;;
2019;SDS011;1014;51.960;8.542;2024-01-15T13:57:51;22.30;;;20.92;;
2019;SDS011;1014;51.960;8.542;2024-01-15T14:00:18;22.83;;;21.50;;
2019;SDS011;1014;51.960;8.542;2024-01-15T14:02:47;19.77;;;18.88;;
2019;SDS011;1014;51.960;8.542;2024-01-15T14:05:14;23.20;;;22.00;;
2019;SDS011;1014;51.960;8.542;2024-01-15T14:07:41;22.90;;;21.15;;
2019;SDS011;1014;51.960;8.542;2024-01-15T14:10:09;20.92;;;19.98;;
2019;SDS011;1014;51.960;8.542;2024-01-15T14:12:36;21.27;;;20.15;;
2019;SDS011;1014;51.960;8.542;2024-01-15T14:15:05;21.52;;;20.42;;
2019;SDS011;1014;51.960;8.542;2024-01-15T14:17:32;21.40;;;20.23;;
2019;SDS011;1014;51.960;8.542;2024-01-15T14:20:00;21.73;;;20.63;;
2019;SDS011;1014;51.960;8.542;2024-01-15T14:22:30;23.88;;;22.77;;
2019;SDS011;1014;51.960;8.542;2024-01-15T14:24:57;24.42;;;22.80;;
2019;SDS011;1014;51.960;8.542;2024-01-15T14:27:24;23.70;;;22.60;;
2019;SDS011;1014;51.960;8.542;2024-01-15T14:29:51;24.58;;;23.17;;
2019;SDS011;1014;51.960;8.542;2024-01-15T14:32:18;25.08;;;23.80;;
2019;SDS011;1014;51.960;8.542;2024-01-15T14:34:45;30.38;;;27.98;;
2019;SDS011;1014;51.960;8.542;2024-01-15T14:37:14;24.90;;;23.15;;
2019;SDS011;1014;51.960;8.542;2024-01-15T14:39:41;23.60;;;22.33;;
2019;SDS011;1014;51.960;8.542;2024-01-15T14:42:08;22.20;;;21.13;;
2019;SDS011;1014;51.960;8.542;2024-01-15T14:44:36;24.70;;;22.65;;
2019;SDS011;1014;51.960;8.542;2024-01-15T14:47:04;24.30;;;22.58;;
2019;SDS011;1014;51.960;8.542;2024-01-15T14:49:31;26.33;;;25.10;;
2019;SDS011;1014;51.960;8.542;2024-01-15T14:51:59;30.05;;;28.25;;
2019;SDS011;1014;51.960;8.542;2024-01-15T14:54:27;28.38;;;26.67;;